AAL1821 MDSD-KMIA
Flight info
| Callsign | AAL1821 |
|---|---|
| Flight time | N/A |
| Altitude | 36000 |
| Route | MALVN4J MALVN Y261 MADIZ VIICE2 |
| Aircraft | A21N/M-SDE2E3FGHIRWXY/LB1 |
Departure
| Time | 2026-04-30 22:39 |
|---|---|
| Airport | Las Américas International Airport (MDSD) |
Arrival
| Time | N/A |
|---|---|
| Airport | Miami International Airport (KMIA) |
| Time | Latitude | Longitude | Altitude | Speed | Heading |
|---|---|---|---|---|---|
| 2026-04-30 22:15 | 18.42866 | -69.67451 | 68 ft | 0 kts | 310° |
| 2026-04-30 22:28 | 18.42858 | -69.67442 | 68 ft | 1 kts | 314° |
| 2026-04-30 22:28 | 18.42852 | -69.67436 | 68 ft | 1 kts | 324° |
| 2026-04-30 22:29 | 18.42817 | -69.67423 | 68 ft | 2 kts | 15° |
| 2026-04-30 22:29 | 18.42804 | -69.67428 | 59 ft | 1 kts | 41° |
| 2026-04-30 22:30 | 18.42799 | -69.67431 | 68 ft | 0 kts | 61° |
| 2026-04-30 22:31 | 18.42846 | -69.67347 | 61 ft | 14 kts | 39° |
| 2026-04-30 22:32 | 18.43081 | -69.67446 | 64 ft | 0 kts | 339° |
| 2026-04-30 22:33 | 18.43265 | -69.67511 | 64 ft | 4 kts | 337° |
| 2026-04-30 22:33 | 18.43402 | -69.67544 | 60 ft | 12 kts | 20° |
| 2026-04-30 22:34 | 18.43684 | -69.67620 | 64 ft | 17 kts | 339° |
| 2026-04-30 22:35 | 18.43815 | -69.67673 | 67 ft | 18 kts | 336° |
| 2026-04-30 22:36 | 18.44156 | -69.67696 | 61 ft | 13 kts | 69° |
| 2026-04-30 22:36 | 18.44201 | -69.67573 | 62 ft | 14 kts | 75° |
| 2026-04-30 22:37 | 18.44156 | -69.67524 | 69 ft | 0 kts | 159° |
| 2026-04-30 22:37 | 18.44087 | -69.67496 | 62 ft | 39 kts | 159° |
| 2026-04-30 22:38 | 18.43784 | -69.67380 | 69 ft | 96 kts | 160° |
| 2026-04-30 22:38 | 18.42848 | -69.67043 | 68 ft | 164 kts | 160° |
| 2026-04-30 22:39 | 18.41657 | -69.66597 | 465 ft | 187 kts | 159° |
| 2026-04-30 22:39 | 18.37975 | -69.65622 | 2757 ft | 204 kts | 194° |
| 2026-04-30 22:40 | 18.35258 | -69.69656 | 4271 ft | 267 kts | 254° |
| 2026-04-30 22:41 | 18.33548 | -69.75445 | 6880 ft | 280 kts | 252° |
| 2026-04-30 22:41 | 18.33507 | -69.79478 | 8724 ft | 286 kts | 293° |
| 2026-04-30 22:42 | 18.37245 | -69.87507 | 11115 ft | 341 kts | 295° |
| 2026-04-30 22:43 | 18.39325 | -69.92035 | 12601 ft | 349 kts | 295° |
| 2026-04-30 22:43 | 18.41469 | -69.96701 | 14140 ft | 356 kts | 294° |
| 2026-04-30 22:44 | 18.43631 | -70.01408 | 15537 ft | 361 kts | 294° |
| 2026-04-30 22:45 | 18.48141 | -70.11039 | 18161 ft | 375 kts | 301° |
| 2026-04-30 22:45 | 18.52029 | -70.14812 | 19222 ft | 391 kts | 329° |
| 2026-04-30 22:46 | 18.56966 | -70.17321 | 20279 ft | 398 kts | 331° |
| 2026-04-30 22:47 | 18.67103 | -70.22491 | 22289 ft | 413 kts | 330° |
| 2026-04-30 22:47 | 18.72275 | -70.25142 | 23361 ft | 418 kts | 329° |
| 2026-04-30 22:48 | 18.77559 | -70.27851 | 24281 ft | 422 kts | 329° |
| 2026-04-30 22:49 | 18.85530 | -70.31938 | 25568 ft | 428 kts | 329° |
| 2026-04-30 22:49 | 18.93603 | -70.36086 | 26743 ft | 434 kts | 329° |
| 2026-04-30 22:50 | 19.04598 | -70.41741 | 28152 ft | 444 kts | 329° |
| 2026-04-30 22:51 | 19.10159 | -70.44603 | 28805 ft | 447 kts | 328° |
| 2026-04-30 22:51 | 19.15757 | -70.47488 | 29349 ft | 453 kts | 329° |
| 2026-04-30 22:52 | 19.18604 | -70.48956 | 29649 ft | 455 kts | 329° |
| 2026-04-30 22:52 | 19.24339 | -70.51913 | 30182 ft | 460 kts | 329° |
| 2026-04-30 22:53 | 19.30084 | -70.54877 | 30717 ft | 463 kts | 329° |
| 2026-04-30 22:53 | 19.35873 | -70.57865 | 31321 ft | 464 kts | 329° |
| 2026-04-30 22:53 | 19.38792 | -70.59376 | 31692 ft | 463 kts | 327° |
| 2026-04-30 22:54 | 19.44119 | -70.62988 | 32431 ft | 454 kts | 318° |
| 2026-04-30 22:55 | 19.51742 | -70.68916 | 33569 ft | 450 kts | 318° |
| 2026-04-30 22:55 | 19.56757 | -70.72805 | 34262 ft | 447 kts | 317° |
| 2026-04-30 22:56 | 19.61731 | -70.76667 | 34904 ft | 445 kts | 317° |
| 2026-04-30 22:56 | 19.69211 | -70.82487 | 35638 ft | 443 kts | 316° |
| 2026-04-30 22:57 | 19.74183 | -70.86362 | 35962 ft | 442 kts | 316° |
| 2026-04-30 22:58 | 19.84091 | -70.94080 | 35968 ft | 440 kts | 317° |
| 2026-04-30 22:59 | 19.98847 | -71.05604 | 35968 ft | 439 kts | 315° |